Time;durP1;ratioP1;P1;durP2;ratioP2;P2;SDS_P1;SDS_P2;PMS_P1;PMS_P2;Temp;Humidity;BMP_temperature;BMP_pressure;BME280_temperature;BME280_humidity;BME280_pressure;Samples;Min_cycle;Max_cycle;Signal;HPM_P1;HPM_P2
2021/12/06 00:00:42;;;;;;;132.68;71.10;;;153.90;2252.80;;;;;;4889102;29;20043;-81
2021/12/06 00:03:14;;;;;;;119.83;64.50;;;153.90;2252.80;;;;;;4920824;29;20040;-83
2021/12/06 00:05:42;;;;;;;110.75;62.63;;;153.80;2252.80;;;;;;4902324;29;20023;-81
2021/12/06 00:08:17;;;;;;;108.93;60.42;;;153.90;2252.80;;;;;;4903623;29;20048;-79
2021/12/06 00:10:50;;;;;;;98.20;56.42;;;153.90;2252.80;;;;;;4902509;29;20037;-79
2021/12/06 00:13:22;;;;;;;89.22;54.28;;;153.80;2252.80;;;;;;4905594;29;20040;-81
2021/12/06 00:15:51;;;;;;;94.05;52.25;;;154.00;2252.80;;;;;;4902399;29;20008;-79
2021/12/06 00:18:26;;;;;;;93.72;52.17;;;153.80;2252.80;;;;;;4991987;23;20088;-80
2021/12/06 00:20:52;;;;;;;91.53;50.15;;;153.70;2252.80;;;;;;4918540;29;20550;-79
2021/12/06 00:23:19;;;;;;;87.53;48.13;;;153.80;2252.80;;;;;;4901843;29;20056;-82
2021/12/06 00:28:26;;;;;;;82.32;48.25;;;153.80;2252.80;;;;;;4920580;23;20056;-79
2021/12/06 00:30:55;;;;;;;101.53;51.20;;;153.80;2252.80;;;;;;4958959;23;20068;-78
2021/12/06 00:33:25;;;;;;;85.88;46.92;;;153.80;2252.80;;;;;;4900960;29;20053;-80
2021/12/06 00:38:27;;;;;;;75.47;43.53;;;153.70;2252.80;;;;;;4812073;27;20065;-79
2021/12/06 00:40:54;;;;;;;89.18;46.42;;;153.80;2252.80;;;;;;4920831;29;20016;-78
2021/12/06 00:43:20;;;;;;;79.20;43.33;;;153.70;2252.80;;;;;;4918068;29;20047;-78
2021/12/06 00:45:50;;;;;;;66.82;38.58;;;153.60;2252.80;;;;;;4921770;29;20023;-78
2021/12/06 00:48:19;;;;;;;76.72;39.97;;;153.70;2252.80;;;;;;4935847;29;20047;-79
2021/12/06 00:50:45;;;;;;;56.67;31.63;;;153.70;2252.80;;;;;;4920963;29;20103;-79
2021/12/06 00:53:12;;;;;;;61.28;32.30;;;153.70;2252.80;;;;;;4920134;29;20048;-80
2021/12/06 00:55:39;;;;;;;55.25;29.77;;;153.70;2252.80;;;;;;4922033;29;20020;-86
2021/12/06 00:58:07;;;;;;;52.47;27.33;;;153.70;2252.80;;;;;;4921088;29;20032;-79
2021/12/06 01:00:43;;;;;;;48.83;26.97;;;153.70;2252.80;;;;;;4921915;29;20127;-84
2021/12/06 01:03:34;;;;;;;52.90;26.45;;;153.80;2252.80;;;;;;4921072;29;20124;-81
2021/12/06 01:06:03;;;;;;;50.25;27.33;;;153.70;2252.80;;;;;;4936058;29;20051;-79
2021/12/06 01:08:30;;;;;;;56.00;27.48;;;153.70;2252.80;;;;;;4905686;29;20028;-79
2021/12/06 01:11:00;;;;;;;50.97;28.23;;;153.80;2252.80;;;;;;4936841;29;20016;-79
2021/12/06 01:13:28;;;;;;;56.08;26.77;;;153.80;2252.80;;;;;;4937523;29;20043;-79
2021/12/06 01:15:56;;;;;;;54.50;26.88;;;153.70;2252.80;;;;;;4919889;29;20016;-79
2021/12/06 01:18:24;;;;;;;63.47;28.25;;;153.80;2252.80;;;;;;4920580;29;20039;-79
2021/12/06 01:21:03;;;;;;;54.63;26.60;;;128.90;2252.80;;;;;;4921306;29;20031;-80
2021/12/06 01:23:56;;;;;;;57.53;27.83;;;128.90;2252.80;;;;;;4935310;29;20044;-79
2021/12/06 01:39:57;;;;;;;78.78;30.48;;;128.70;2252.80;;;;;;4996381;23;20429;-79
2021/12/06 01:42:32;;;;;;;72.10;29.87;;;128.60;2252.80;;;;;;4903996;29;20037;-85
2021/12/06 01:45:26;;;;;;;69.35;29.30;;;128.60;2252.80;;;;;;4902960;29;20028;-79
2021/12/06 01:47:52;;;;;;;69.60;30.43;;;128.60;2252.80;;;;;;4900138;29;20024;-78
2021/12/06 01:50:24;;;;;;;78.67;30.37;;;128.60;2252.80;;;;;;4916935;29;20041;-80
2021/12/06 01:52:56;;;;;;;74.13;30.63;;;128.50;2252.80;;;;;;4917095;29;20044;-79
2021/12/06 01:55:27;;;;;;;71.13;27.73;;;128.50;2252.80;;;;;;4905582;29;20098;-79
2021/12/06 01:57:55;;;;;;;65.93;28.73;;;128.50;2252.80;;;;;;4904796;29;20033;-78
2021/12/06 02:00:33;;;;;;;58.67;26.27;;;128.50;2252.80;;;;;;4902404;29;20033;-79
2021/12/06 02:03:06;;;;;;;58.85;25.55;;;128.60;2252.80;;;;;;4906809;29;20017;-79
2021/12/06 02:05:48;;;;;;;70.25;29.55;;;128.60;2252.80;;;;;;4919202;29;20033;-79
2021/12/06 02:08:15;;;;;;;94.97;32.87;;;128.60;2252.80;;;;;;4904922;29;20098;-80
2021/12/06 02:11:01;;;;;;;79.93;30.27;;;128.40;2252.80;;;;;;4920534;29;20029;-79
2021/12/06 02:13:39;;;;;;;65.60;27.07;;;128.50;2252.80;;;;;;4905059;29;20032;-79
2021/12/06 02:16:06;;;;;;;96.70;35.00;;;128.40;2252.80;;;;;;4903385;29;20041;-79
2021/12/06 02:21:36;;;;;;;83.40;33.43;;;128.40;2252.80;;;;;;4919171;29;20020;-78
2021/12/06 02:24:07;;;;;;;79.00;28.93;;;128.30;2252.80;;;;;;4919816;29;20047;-79
2021/12/06 02:26:38;;;;;;;120.33;35.00;;;128.20;2252.80;;;;;;4903400;29;20036;-78
2021/12/06 02:29:24;;;;;;;141.90;38.35;;;128.20;2252.80;;;;;;4904726;29;20016;-78
2021/12/06 02:31:51;;;;;;;84.63;32.23;;;102.70;2227.20;;;;;;4902497;29;20017;-78
2021/12/06 02:34:18;;;;;;;101.13;33.33;;;128.10;2252.80;;;;;;4901899;29;20040;-79
2021/12/06 02:36:46;;;;;;;106.93;35.03;;;128.10;2252.80;;;;;;4918218;29;20032;-78
2021/12/06 02:39:23;;;;;;;84.97;28.93;;;128.10;2252.80;;;;;;4902135;29;20041;-80
2021/12/06 02:41:53;;;;;;;86.23;29.00;;;128.00;2252.80;;;;;;4901239;29;20012;-79
2021/12/06 02:44:19;;;;;;;66.47;26.93;;;103.30;2227.20;;;;;;4920412;29;20036;-80
2021/12/06 02:46:45;;;;;;;77.20;30.17;;;103.30;2227.20;;;;;;4904539;29;20495;-78
2021/12/06 02:49:13;;;;;;;78.20;32.73;;;103.20;2227.20;;;;;;4906003;29;20020;-79
2021/12/06 02:51:44;;;;;;;102.97;40.43;;;102.90;2227.20;;;;;;4905507;29;20044;-78
2021/12/06 02:54:11;;;;;;;96.77;39.07;;;103.10;2227.20;;;;;;4921457;29;20051;-79
2021/12/06 02:56:49;;;;;;;80.27;35.43;;;103.10;2227.20;;;;;;4901861;29;20028;-80
2021/12/06 02:59:23;;;;;;;74.63;31.50;;;103.10;2227.20;;;;;;4889541;29;20504;-82
2021/12/06 03:01:58;;;;;;;77.97;32.63;;;103.10;2227.20;;;;;;4917217;29;20047;-80
2021/12/06 03:04:25;;;;;;;81.28;36.70;;;103.00;2227.20;;;;;;4919100;29;20064;-78
2021/12/06 03:06:55;;;;;;;116.10;45.43;;;102.80;2227.20;;;;;;4916646;29;20028;-78
2021/12/06 03:09:27;;;;;;;99.23;43.10;;;102.90;2227.20;;;;;;4918102;29;20012;-78
2021/12/06 03:12:13;;;;;;;89.23;39.93;;;102.90;2227.20;;;;;;4917131;29;20024;-78
2021/12/06 03:14:42;;;;;;;82.97;36.20;;;;;;;;;;4919159;29;20017;-78
2021/12/06 03:17:14;;;;;;;86.30;38.10;;;;;;;;;;4917587;29;20080;-79
2021/12/06 03:19:43;;;;;;;87.30;36.87;;;;;;;;;;4917984;29;20107;-79
2021/12/06 03:22:12;;;;;;;77.33;34.67;;;;;;;;;;4917791;29;20124;-78
2021/12/06 03:24:39;;;;;;;73.97;35.20;;;;;;;;;;4916462;29;20119;-78
2021/12/06 03:27:06;;;;;;;61.40;30.73;;;;;;;;;;4917208;29;20027;-79
2021/12/06 03:29:48;;;;;;;69.20;33.23;;;103.20;2227.20;;;;;;4915890;29;20041;-78
2021/12/06 03:32:14;;;;;;;72.80;32.73;;;103.10;2227.20;;;;;;4904459;29;20056;-83
2021/12/06 03:34:45;;;;;;;60.73;31.20;;;103.10;2227.20;;;;;;4914764;29;20045;-78
2021/12/06 03:37:14;;;;;;;61.87;29.73;;;103.10;2227.20;;;;;;4899065;29;20028;-78
2021/12/06 03:39:44;;;;;;;61.73;30.53;;;103.00;2227.20;;;;;;4916529;29;20509;-77
2021/12/06 03:42:14;;;;;;;66.90;35.67;;;103.00;2227.20;;;;;;4898810;29;20036;-77
2021/12/06 03:44:42;;;;;;;80.63;35.97;;;102.90;2227.20;;;;;;4897498;29;20028;-82
2021/12/06 03:47:21;;;;;;;83.90;38.37;;;102.90;2227.20;;;;;;4912558;29;20029;-78
2021/12/06 03:49:53;;;;;;;68.33;33.53;;;102.90;2227.20;;;;;;4911449;29;20501;-78
2021/12/06 03:52:22;;;;;;;68.13;33.13;;;;;;;;;;4894707;29;20047;-78
2021/12/06 03:55:13;;;;;;;58.17;31.50;;;;;;;;;;4900588;29;20040;-78
2021/12/06 03:58:19;;;;;;;46.80;26.80;;;102.90;2227.20;;;;;;4915402;29;20072;-78
2021/12/06 04:00:47;;;;;;;62.83;31.03;;;102.80;2227.20;;;;;;4882732;29;20045;-78
2021/12/06 04:03:13;;;;;;;63.00;31.23;;;102.80;2227.20;;;;;;4897485;29;20041;-78
2021/12/06 04:05:41;;;;;;;67.10;34.13;;;102.90;2227.20;;;;;;4923285;23;20033;-78
2021/12/06 04:08:08;;;;;;;74.23;35.10;;;103.00;2227.20;;;;;;4879383;29;20068;-78
2021/12/06 04:10:34;;;;;;;65.00;33.47;;;103.00;2227.20;;;;;;4877687;29;20041;-78
2021/12/06 04:13:10;;;;;;;63.17;31.47;;;102.90;2227.20;;;;;;4878168;29;20045;-78
2021/12/06 04:15:39;;;;;;;59.53;32.67;;;102.90;2227.20;;;;;;4876343;29;20041;-78
2021/12/06 04:18:11;;;;;;;54.20;30.07;;;102.90;2227.20;;;;;;4905243;23;20057;-78
2021/12/06 04:20:37;;;;;;;47.50;26.83;;;103.00;2227.20;;;;;;4897784;29;20021;-78
2021/12/06 04:23:10;;;;;;;51.07;28.17;;;102.90;2227.20;;;;;;4914642;29;20137;-78
2021/12/06 04:25:50;;;;;;;42.88;23.23;;;;;;;;;;4914576;29;20039;-79
2021/12/06 04:28:21;;;;;;;53.30;25.73;;;;;;;;;;4914793;29;20036;-78
2021/12/06 04:30:52;;;;;;;51.10;27.47;;;;;;;;;;4916082;29;20115;-79
2021/12/06 04:33:19;;;;;;;52.87;27.40;;;;;;;;;;5011551;23;20055;-78
2021/12/06 04:36:07;;;;;;;65.87;31.47;;;;;;;;;;4914780;29;20033;-78
2021/12/06 04:38:33;;;;;;;63.00;31.27;;;;;;;;;;4914134;29;20017;-78
2021/12/06 04:41:01;;;;;;;59.63;32.13;;;;;;;;;;4912780;29;20032;-78
2021/12/06 04:43:28;;;;;;;55.87;30.77;;;103.20;2227.20;;;;;;4914766;29;20072;-78
2021/12/06 04:45:55;;;;;;;49.20;26.00;;;103.20;2227.20;;;;;;4897576;29;20028;-78
2021/12/06 04:48:22;;;;;;;57.30;29.97;;;;;;;;;;4916387;29;20037;-83
2021/12/06 04:50:48;;;;;;;56.87;32.87;;;;;;;;;;4914995;29;20036;-78
2021/12/06 04:53:26;;;;;;;68.67;33.30;;;;;;;;;;4915581;29;20054;-78
2021/12/06 04:56:04;;;;;;;64.70;33.13;;;;;;;;;;4913533;29;20009;-78
2021/12/06 04:58:32;;;;;;;70.10;34.43;;;;;;;;;;4911511;29;20059;-78
2021/12/06 05:01:10;;;;;;;68.57;32.60;;;103.10;2227.20;;;;;;4913710;29;20012;-78
2021/12/06 05:03:39;;;;;;;67.13;33.93;;;103.00;2227.20;;;;;;4912407;29;20083;-78
2021/12/06 05:06:35;;;;;;;66.07;34.17;;;102.80;2227.20;;;;;;4913220;29;20038;-79
2021/12/06 05:09:18;;;;;;;63.03;33.50;;;102.90;2227.20;;;;;;4883893;29;20028;-79
2021/12/06 05:11:50;;;;;;;66.53;33.83;;;102.90;2227.20;;;;;;4897210;29;20393;-78
2021/12/06 05:14:22;;;;;;;62.20;32.50;;;102.90;2227.20;;;;;;4913049;29;20036;-77
2021/12/06 05:16:48;;;;;;;63.07;32.70;;;102.70;2227.20;;;;;;4895322;29;20023;-78
2021/12/06 05:19:31;;;;;;;70.93;33.70;;;102.80;2227.20;;;;;;4894474;29;20040;-78
2021/12/06 05:22:00;;;;;;;85.18;38.03;;;102.90;2227.20;;;;;;4912740;29;20069;-78
2021/12/06 05:24:31;;;;;;;63.70;33.00;;;102.80;2227.20;;;;;;4896155;29;20044;-78
2021/12/06 05:26:59;;;;;;;52.80;29.27;;;102.80;2227.20;;;;;;4895153;29;20029;-77
2021/12/06 05:29:37;;;;;;;51.47;29.90;;;102.70;2227.20;;;;;;4914137;29;20045;-77
2021/12/06 05:32:06;;;;;;;53.07;30.07;;;102.70;2227.20;;;;;;4915169;29;20129;-78
2021/12/06 05:35:00;;;;;;;48.57;28.40;;;102.70;2227.20;;;;;;4892886;29;20041;-79
2021/12/06 05:37:26;;;;;;;55.35;27.80;;;102.80;2227.20;;;;;;4897014;29;20052;-79
2021/12/06 05:39:59;;;;;;;49.07;28.40;;;102.90;2227.20;;;;;;4911213;29;20043;-79
2021/12/06 05:42:26;;;;;;;58.50;30.80;;;102.90;2227.20;;;;;;4895047;29;20036;-77
2021/12/06 05:44:53;;;;;;;56.63;30.00;;;102.90;2227.20;;;;;;4912390;29;20020;-78
2021/12/06 05:47:22;;;;;;;54.83;29.97;;;102.90;2227.20;;;;;;4912421;29;20032;-77
2021/12/06 05:49:49;;;;;;;49.03;29.23;;;102.80;2227.20;;;;;;4895734;29;20023;-78
2021/12/06 05:52:35;;;;;;;48.40;27.50;;;102.70;2227.20;;;;;;4909693;23;20059;-78
2021/12/06 05:55:05;;;;;;;47.57;28.23;;;102.60;2227.20;;;;;;4881480;29;20028;-78
2021/12/06 05:57:31;;;;;;;51.17;27.70;;;102.60;2227.20;;;;;;4913215;29;20024;-78
2021/12/06 05:59:57;;;;;;;55.30;31.57;;;102.60;2227.20;;;;;;4895251;29;20019;-78
2021/12/06 06:02:25;;;;;;;60.37;36.00;;;102.60;2227.20;;;;;;4913661;29;20033;-78
2021/12/06 06:04:53;;;;;;;50.63;30.83;;;102.60;2227.20;;;;;;4912633;29;20017;-78
2021/12/06 06:07:21;;;;;;;63.93;39.20;;;102.80;2227.20;;;;;;4914429;29;20033;-78
2021/12/06 06:09:51;;;;;;;48.30;29.37;;;102.60;2227.20;;;;;;4894621;29;20043;-78
2021/12/06 06:12:17;;;;;;;35.23;23.07;;;102.60;2227.20;;;;;;4913867;29;20045;-79
2021/12/06 06:14:43;;;;;;;41.53;26.70;;;102.60;2227.20;;;;;;4898052;29;20083;-78
2021/12/06 06:17:24;;;;;;;45.60;26.37;;;102.50;2227.20;;;;;;4913560;29;20061;-78
2021/12/06 06:20:04;;;;;;;44.50;24.70;;;102.40;2227.20;;;;;;4913621;29;20092;-78
2021/12/06 06:22:30;;;;;;;55.57;38.23;;;102.40;2227.20;;;;;;4899854;29;20036;-77
2021/12/06 06:25:00;;;;;;;145.87;80.90;;;77.70;2227.20;;;;;;4899106;29;20040;-78
2021/12/06 06:27:33;;;;;;;70.77;32.13;;;77.70;2227.20;;;;;;4915181;29;20033;-78
2021/12/06 06:30:07;;;;;;;27.73;18.17;;;77.70;2227.20;;;;;;4866033;29;20085;-77
2021/12/06 06:36:11;;;;;;;28.37;17.33;;;77.70;2227.20;;;;;;4985000;23;20044;-79
2021/12/06 06:38:38;;;;;;;26.87;16.37;;;102.40;2227.20;;;;;;4913429;29;20036;-78
2021/12/06 06:41:08;;;;;;;25.10;16.80;;;102.40;2227.20;;;;;;4897456;29;20055;-78
2021/12/06 06:43:36;;;;;;;25.87;17.50;;;102.40;2227.20;;;;;;4900763;29;20024;-78
2021/12/06 06:46:06;;;;;;;24.43;16.00;;;102.40;2227.20;;;;;;4900741;29;20043;-79
2021/12/06 06:48:32;;;;;;;25.97;17.10;;;102.90;2227.20;;;;;;4902340;29;20398;-83
2021/12/06 06:51:02;;;;;;;24.33;16.67;;;102.60;2227.20;;;;;;4916194;29;20052;-78
2021/12/06 06:53:28;;;;;;;41.17;22.70;;;102.40;2227.20;;;;;;4920749;29;20056;-79
2021/12/06 06:55:58;;;;;;;37.83;22.33;;;102.50;2227.20;;;;;;4917173;29;20037;-77
2021/12/06 06:58:24;;;;;;;39.07;22.03;;;102.40;2227.20;;;;;;4901978;29;20055;-79
2021/12/06 07:00:52;;;;;;;33.87;21.33;;;102.50;2227.20;;;;;;4900693;29;20096;-78
2021/12/06 07:03:18;;;;;;;32.30;20.07;;;102.60;2227.20;;;;;;4902745;29;20033;-78
2021/12/06 07:05:48;;;;;;;30.43;19.63;;;102.80;2227.20;;;;;;4903272;29;20389;-79
2021/12/06 07:08:17;;;;;;;31.60;19.23;;;102.60;2227.20;;;;;;4902787;29;20031;-78
2021/12/06 07:10:45;;;;;;;25.07;17.47;;;102.50;2227.20;;;;;;4900212;29;20033;-78
2021/12/06 07:13:14;;;;;;;27.27;17.03;;;102.60;2227.20;;;;;;4902539;29;20044;-82
2021/12/06 07:15:44;;;;;;;26.73;18.27;;;102.70;2227.20;;;;;;4919453;29;20012;-79
2021/12/06 07:18:11;;;;;;;27.33;18.33;;;102.70;2227.20;;;;;;4903145;29;20088;-78
2021/12/06 07:21:12;;;;;;;31.20;19.87;;;102.80;2227.20;;;;;;4903724;29;20013;-79
2021/12/06 07:23:45;;;;;;;31.43;19.60;;;102.70;2227.20;;;;;;4918436;29;20023;-79
2021/12/06 07:26:23;;;;;;;26.77;17.77;;;102.60;2227.20;;;;;;4900600;29;20052;-78
2021/12/06 07:28:55;;;;;;;25.03;17.50;;;102.70;2227.20;;;;;;4887025;29;20064;-78
2021/12/06 07:31:32;;;;;;;26.57;18.20;;;102.80;2227.20;;;;;;4917581;29;20029;-79
2021/12/06 07:33:59;;;;;;;24.60;17.70;;;102.70;2227.20;;;;;;4917479;29;20455;-78
2021/12/06 07:36:28;;;;;;;28.23;18.63;;;102.70;2227.20;;;;;;4899463;29;20008;-78
2021/12/06 07:39:00;;;;;;;26.63;17.80;;;102.80;2227.20;;;;;;4916167;29;20140;-78
2021/12/06 07:41:31;;;;;;;29.47;19.80;;;102.80;2227.20;;;;;;4904649;29;20088;-80
2021/12/06 07:44:26;;;;;;;33.90;20.73;;;102.70;2227.20;;;;;;4898353;29;20037;-80
2021/12/06 07:46:54;;;;;;;29.37;20.63;;;102.60;2227.20;;;;;;4896583;29;20086;-84
2021/12/06 07:49:37;;;;;;;32.40;22.43;;;102.50;2227.20;;;;;;4919495;29;20021;-78
2021/12/06 07:52:07;;;;;;;27.90;20.07;;;102.60;2227.20;;;;;;4902411;29;20059;-78
2021/12/06 07:54:34;;;;;;;30.07;20.63;;;102.70;2227.20;;;;;;4918561;29;20127;-78
2021/12/06 07:57:01;;;;;;;33.40;21.63;;;102.70;2227.20;;;;;;4917611;29;20394;-79
2021/12/06 07:59:29;;;;;;;31.97;21.33;;;102.60;2227.20;;;;;;4888479;29;20044;-80
2021/12/06 08:01:59;;;;;;;31.73;22.07;;;102.70;2227.20;;;;;;4915310;29;20080;-78
2021/12/06 08:04:28;;;;;;;32.43;21.93;;;102.60;2227.20;;;;;;4898290;29;20040;-78
2021/12/06 08:06:55;;;;;;;37.07;24.20;;;102.90;2227.20;;;;;;4884280;29;20083;-78
2021/12/06 08:09:23;;;;;;;35.40;23.03;;;102.70;2227.20;;;;;;4898730;29;20047;-81
2021/12/06 08:11:49;;;;;;;29.87;21.63;;;102.70;2227.20;;;;;;4919466;23;20056;-78
2021/12/06 08:14:21;;;;;;;35.70;23.50;;;102.70;2227.20;;;;;;4915557;29;20029;-78
2021/12/06 08:17:06;;;;;;;30.17;20.27;;;102.80;2227.20;;;;;;4917103;29;20108;-86
2021/12/06 08:19:36;;;;;;;31.90;21.13;;;102.80;2227.20;;;;;;4924517;29;20016;-79
2021/12/06 08:22:04;;;;;;;34.80;22.67;;;102.80;2227.20;;;;;;4923234;29;20012;-81
2021/12/06 08:24:34;;;;;;;33.83;21.93;;;102.80;2227.20;;;;;;4921302;29;20025;-78
2021/12/06 08:27:00;;;;;;;36.60;22.37;;;102.80;2227.20;;;;;;4900950;29;20052;-78
2021/12/06 08:29:31;;;;;;;27.60;19.27;;;102.90;2227.20;;;;;;4920871;29;20080;-78
2021/12/06 08:32:01;;;;;;;37.37;24.23;;;102.80;2227.20;;;;;;4918789;29;20029;-78
2021/12/06 08:34:30;;;;;;;30.67;21.27;;;102.80;2227.20;;;;;;4902025;29;20029;-84
2021/12/06 08:36:56;;;;;;;34.07;20.83;;;102.80;2227.20;;;;;;4901952;29;20033;-78
2021/12/06 08:39:22;;;;;;;36.80;23.23;;;102.80;2227.20;;;;;;4901989;29;20060;-82
2021/12/06 08:41:48;;;;;;;34.67;24.73;;;102.90;2227.20;;;;;;4900738;29;20032;-79
2021/12/06 08:44:15;;;;;;;37.07;23.50;;;102.90;2227.20;;;;;;4900377;29;20474;-80
2021/12/06 08:47:02;;;;;;;42.17;26.60;;;102.80;2227.20;;;;;;4918890;29;20025;-78
2021/12/06 08:49:34;;;;;;;66.40;39.43;;;102.80;2227.20;;;;;;4901040;29;20033;-80
2021/12/06 08:52:07;;;;;;;49.23;32.00;;;102.80;2227.20;;;;;;4920363;29;20040;-82
2021/12/06 08:54:33;;;;;;;38.90;24.20;;;102.90;2227.20;;;;;;4905980;29;20020;-79
2021/12/06 08:57:15;;;;;;;35.20;22.80;;;102.80;2227.20;;;;;;4899824;29;20052;-80
2021/12/06 09:00:13;;;;;;;41.13;25.45;;;102.70;2227.20;;;;;;4922124;29;20016;-82
2021/12/06 09:02:39;;;;;;;53.80;29.00;;;102.60;2227.20;;;;;;4921548;29;20021;-83
2021/12/06 09:05:41;;;;;;;39.40;23.87;;;102.60;2227.20;;;;;;4920794;29;20043;-82
2021/12/06 09:08:29;;;;;;;37.67;23.43;;;102.60;2227.20;;;;;;4922099;29;20012;-81
2021/12/06 09:11:02;;;;;;;43.83;27.77;;;102.60;2227.20;;;;;;4938733;23;20087;-80
2021/12/06 09:13:50;;;;;;;53.67;30.63;;;102.70;2227.20;;;;;;4938207;29;20044;-80
2021/12/06 09:16:23;;;;;;;62.65;38.53;;;102.80;2227.20;;;;;;4938801;29;20013;-83
2021/12/06 09:18:53;;;;;;;62.60;40.53;;;102.80;2227.20;;;;;;4922240;29;20021;-80
2021/12/06 09:21:23;;;;;;;44.27;30.57;;;102.90;2227.20;;;;;;4938566;29;20008;-81
2021/12/06 09:23:51;;;;;;;36.73;23.93;;;103.00;2227.20;;;;;;4921015;29;20028;-79
2021/12/06 09:26:19;;;;;;;37.13;25.80;;;102.90;2227.20;;;;;;4936144;29;20016;-80
2021/12/06 09:28:45;;;;;;;40.50;25.20;;;102.90;2227.20;;;;;;4922929;29;20039;-79
2021/12/06 09:31:47;;;;;;;36.73;24.33;;;102.90;2227.20;;;;;;4941460;28;20008;-78
2021/12/06 09:34:17;;;;;;;125.47;81.37;;;102.80;2227.20;;;;;;4936593;29;20063;-79
2021/12/06 09:36:43;;;;;;;44.27;27.63;;;102.90;2227.20;;;;;;4923024;29;20048;-79
2021/12/06 09:39:40;;;;;;;35.97;22.87;;;102.90;2227.20;;;;;;4923758;29;20027;-80
2021/12/06 09:42:36;;;;;;;35.70;24.17;;;102.80;2227.20;;;;;;4923042;29;20024;-84
2021/12/06 09:45:49;;;;;;;35.40;22.53;;;102.90;2227.20;;;;;;4999771;23;20037;-83
2021/12/06 09:48:18;;;;;;;43.97;30.47;;;102.90;2227.20;;;;;;4920897;29;20056;-81
2021/12/06 09:50:54;;;;;;;40.70;24.63;;;103.00;2227.20;;;;;;4921730;29;20032;-82
2021/12/06 09:53:22;;;;;;;43.23;27.97;;;103.00;2227.20;;;;;;4904753;29;20048;-82
2021/12/06 09:56:23;;;;;;;42.63;26.47;;;103.10;2227.20;;;;;;4921866;29;20033;-83
2021/12/06 09:59:36;;;;;;;45.97;27.53;;;103.10;2227.20;;;;;;4941191;29;20040;-86
2021/12/06 10:05:29;;;;;;;44.23;25.53;;;103.10;2227.20;;;;;;4940367;29;20028;-83
2021/12/06 10:08:31;;;;;;;153.80;60.90;;;103.30;2227.20;;;;;;4940315;29;20038;-85
2021/12/06 10:11:13;;;;;;;49.40;28.93;;;103.10;2227.20;;;;;;4924194;29;20024;-81
2021/12/06 10:13:41;;;;;;;79.10;35.70;;;103.10;2227.20;;;;;;4924057;29;20052;-83
2021/12/06 10:16:45;;;;;;;39.67;23.63;;;103.10;2227.20;;;;;;4923972;29;20036;-81
2021/12/06 10:23:11;;;;;;;68.13;31.80;;;103.10;2227.20;;;;;;4944253;29;20019;-83
2021/12/06 10:26:20;;;;;;;430.93;136.23;;;103.20;2227.20;;;;;;4943270;29;20024;-86
2021/12/06 10:28:50;;;;;;;199.97;61.00;;;103.30;2227.20;;;;;;4912022;29;20031;-84
2021/12/06 10:31:18;;;;;;;918.57;284.87;;;103.20;2227.20;;;;;;4928161;29;20044;-83
2021/12/06 10:34:08;;;;;;;1053.73;305.93;;;103.30;2227.20;;;;;;4943223;29;20067;-84
2021/12/06 10:40:09;;;;;;;57.83;30.07;;;103.30;2227.20;;;;;;4940049;29;20034;-82
2021/12/06 10:43:00;;;;;;;69.77;33.73;;;103.20;2227.20;;;;;;5099861;23;20040;-84
2021/12/06 10:46:17;;;;;;;330.57;132.37;;;103.10;2227.20;;;;;;4941631;29;20025;-82
2021/12/06 10:48:59;;;;;;;98.63;44.87;;;103.20;2227.20;;;;;;4943727;29;20072;-83
2021/12/06 10:51:41;;;;;;;56.13;30.03;;;103.10;2227.20;;;;;;4941837;29;20023;-84
2021/12/06 10:54:37;;;;;;;656.03;371.43;;;103.10;2227.20;;;;;;4890034;29;20105;-82
2021/12/06 10:57:49;;;;;;;918.47;553.73;;;103.10;2227.20;;;;;;4942137;29;20052;-82
2021/12/06 11:01:06;;;;;;;520.83;326.50;;;103.20;2227.20;;;;;;4941468;29;20017;-82
2021/12/06 11:04:09;;;;;;;97.33;60.00;;;103.30;2227.20;;;;;;4941158;29;20032;-82
2021/12/06 11:06:54;;;;;;;245.70;130.77;;;103.10;2227.20;;;;;;4941909;29;20040;-82
2021/12/06 11:09:56;;;;;;;158.20;85.57;;;103.20;2227.20;;;;;;4927022;29;20012;-83
2021/12/06 11:13:31;;;;;;;230.00;114.60;;;103.20;2227.20;;;;;;4943827;29;20020;-84
2021/12/06 11:16:48;;;;;;;74.73;43.07;;;103.20;2227.20;;;;;;4925940;29;20035;-85
2021/12/06 11:20:07;;;;;;;51.17;30.03;;;103.20;2227.20;;;;;;4926876;29;20047;-84
2021/12/06 11:23:03;;;;;;;38.90;25.77;;;103.20;2227.20;;;;;;4925464;29;20031;-82
2021/12/06 11:26:14;;;;;;;54.30;34.47;;;103.10;2227.20;;;;;;4925801;29;20012;-85
2021/12/06 11:28:48;;;;;;;47.43;31.13;;;103.20;2227.20;;;;;;4936564;29;20068;-83
2021/12/06 11:32:05;;;;;;;53.63;33.67;;;103.20;2227.20;;;;;;4906644;29;20036;-86
2021/12/06 11:38:41;;;;;;;46.27;30.53;;;103.20;2227.20;;;;;;4904988;29;20027;-85
2021/12/06 11:44:38;;;;;;;48.03;29.53;;;103.20;2227.20;;;;;;5289639;23;20071;-82
2021/12/06 11:47:22;;;;;;;46.23;29.03;;;103.30;2227.20;;;;;;4904993;29;20022;-86
2021/12/06 11:50:19;;;;;;;38.90;23.97;;;103.20;2227.20;;;;;;4900140;29;20020;-84
2021/12/06 11:53:52;;;;;;;38.30;23.73;;;103.20;2227.20;;;;;;4904782;29;20027;-80
2021/12/06 11:57:06;;;;;;;38.47;24.67;;;103.20;2227.20;;;;;;4905592;29;20040;-90
2021/12/06 12:00:23;;;;;;;49.30;29.87;;;103.20;2227.20;;;;;;4905603;29;20013;-87
2021/12/06 12:18:25;;;;;;;53.67;34.30;;;103.20;2227.20;;;;;;4950772;23;20041;-87
2021/12/06 12:24:02;;;;;;;60.23;36.13;;;103.10;2227.20;;;;;;4923556;29;20044;-82
2021/12/06 12:27:15;;;;;;;78.03;47.50;;;103.00;2227.20;;;;;;4907823;29;20020;-82
2021/12/06 12:30:37;;;;;;;66.17;39.37;;;103.20;2227.20;;;;;;4928571;23;20088;-81
2021/12/06 12:34:00;;;;;;;58.70;35.87;;;103.20;2227.20;;;;;;4885124;29;20082;-83
2021/12/06 12:43:36;;;;;;;50.20;30.83;;;103.20;2227.20;;;;;;4923276;29;20020;-81
2021/12/06 12:49:38;;;;;;;53.63;32.57;;;103.20;2227.20;;;;;;5199282;23;20048;-86
2021/12/06 12:52:14;;;;;;;48.00;29.17;;;103.30;2227.20;;;;;;4869144;29;20025;-86
2021/12/06 12:55:19;;;;;;;41.00;26.20;;;103.30;2227.20;;;;;;4869588;29;20021;-82
2021/12/06 13:01:44;;;;;;;49.30;29.80;;;103.30;2227.20;;;;;;4881778;29;20032;-82
2021/12/06 13:04:21;;;;;;;48.47;29.60;;;103.30;2227.20;;;;;;4884830;29;20041;-81
2021/12/06 13:07:16;;;;;;;45.83;27.73;;;128.00;2252.80;;;;;;4884718;29;20102;-82
2021/12/06 13:09:47;;;;;;;44.37;28.60;;;103.30;2227.20;;;;;;4869367;29;20047;-80
2021/12/06 13:12:15;;;;;;;49.50;30.30;;;103.30;2227.20;;;;;;4884302;29;20117;-83
2021/12/06 13:18:37;;;;;;;59.83;36.57;;;103.30;2227.20;;;;;;4792863;29;20026;-82
2021/12/06 13:21:57;;;;;;;57.97;41.17;;;103.30;2227.20;;;;;;4955035;23;20037;-79
2021/12/06 13:25:20;;;;;;;68.70;39.03;;;128.00;2252.80;;;;;;4893537;29;20021;-87
2021/12/06 13:28:10;;;;;;;64.30;42.70;;;128.00;2252.80;;;;;;4920356;29;20028;-83
2021/12/06 13:34:39;;;;;;;71.45;44.63;;;128.10;2252.80;;;;;;4960487;23;20087;-84
2021/12/06 13:37:05;;;;;;;48.00;28.43;;;128.00;2252.80;;;;;;4921508;29;20024;-80
2021/12/06 13:40:13;;;;;;;73.57;48.37;;;128.00;2252.80;;;;;;5131627;23;20025;-81
2021/12/06 13:44:09;;;;;;;68.03;39.47;;;128.00;2252.80;;;;;;4922440;29;20134;-79
2021/12/06 13:47:19;;;;;;;59.37;34.47;;;103.30;2227.20;;;;;;4922668;29;20045;-83
2021/12/06 13:50:30;;;;;;;50.47;29.10;;;128.90;2252.80;;;;;;4938336;23;20015;-82
2021/12/06 13:53:35;;;;;;;67.23;37.60;;;128.00;2252.80;;;;;;4905653;29;20048;-79
2021/12/06 13:56:11;;;;;;;109.37;55.77;;;128.00;2252.80;;;;;;4893418;29;20037;-80
2021/12/06 13:58:45;;;;;;;334.07;100.80;;;128.00;2252.80;;;;;;4892865;29;20047;-81
2021/12/06 14:01:18;;;;;;;236.17;87.70;;;128.00;2252.80;;;;;;4879748;29;20037;-79
2021/12/06 14:03:49;;;;;;;126.25;64.65;;;128.00;2252.80;;;;;;4905684;29;20479;-82
2021/12/06 14:07:13;;;;;;;168.20;79.07;;;128.00;2252.80;;;;;;4864736;29;20030;-83
2021/12/06 14:09:50;;;;;;;211.00;86.20;;;128.10;2252.80;;;;;;4885543;29;20042;-81
2021/12/06 14:12:22;;;;;;;287.23;112.63;;;128.10;2252.80;;;;;;4898490;29;20029;-80
2021/12/06 14:14:54;;;;;;;170.30;81.87;;;128.20;2252.80;;;;;;4888068;29;20021;-82
2021/12/06 14:17:36;;;;;;;258.03;115.70;;;128.20;2252.80;;;;;;4904014;29;20078;-84
2021/12/06 14:20:30;;;;;;;299.97;140.17;;;128.20;2252.80;;;;;;4887857;29;20049;-81